Gaasoe Jarl — LDZR — position and weather

sailwx.info

Track history (hours):
 
Tides and Currents Weather Stations Pressure Air Temp Water Temp Dewpoint Dewpoint Depression Visibility Wind Speed Wind Dir Waves Ship Positions

Gaasoe Jarl

Last reported at 2018-Jun-18 15:30 UTC. Time now 2018-Jun-18 15:35 UTC.
Position N 63°50' E 008°54'.

Length 85 m; draft 6.5 m.

Type: Cargo ship. MMSI: 257075000.

Date/timePositionNaut miles runAvg speedWind from/ knotsBaromVisibWave heightAir tempDewpointWater temp
2018-Jun-18 15:30N 63°50' E 008°54'611.3
2018-Jun-18 15:00N 63°51' E 008°41'611.6
2018-Jun-18 14:30N 63°49' E 008°28'1 1.3
2018-Jun-18 14:00N 63°49' E 008°27'0 0.0
2018-Jun-18 13:30N 63°49' E 008°27'0 0.0
2018-Jun-18 13:00N 63°49' E 008°27'0 0.0
2018-Jun-18 12:30N 63°49' E 008°27'0 0.0
2018-Jun-18 12:00N 63°49' E 008°27'0 0.0
2018-Jun-18 11:29N 63°49' E 008°27'0 0.2
2018-Jun-18 11:00N 63°49' E 008°28'2 4.9
2018-Jun-18 10:30N 63°49' E 008°33'5 9.1
2018-Jun-18 10:00N 63°51' E 008°43'4 8.7
2018-Jun-18 09:30N 63°50' E 008°52'4 8.8
2018-Jun-18 09:00N 63°47' E 008°60'5 9.5
2018-Jun-18 08:30N 63°42' E 008°60'2 4.4
2018-Jun-18 08:00N 63°40' E 009°01'0 0.6
2018-Jun-18 07:30N 63°40' E 009°02'0 0.0
2018-Jun-18 07:00N 63°40' E 009°02'0 0.0
2018-Jun-18 06:30N 63°40' E 009°02'0 0.0
2018-Jun-18 06:00N 63°40' E 009°02'0 0.0
2018-Jun-18 05:30N 63°40' E 009°02'0 0.0
2018-Jun-18 05:00N 63°40' E 009°02'0 0.0
2018-Jun-18 04:30N 63°40' E 009°02'0 0.0
2018-Jun-18 04:00N 63°40' E 009°02'0 0.0
2018-Jun-18 03:30N 63°40' E 009°02'0 0.0
2018-Jun-18 03:00N 63°40' E 009°02'0 0.0
2018-Jun-18 02:30N 63°40' E 009°02'0 0.0
2018-Jun-18 02:00N 63°40' E 009°02'0 0.0
2018-Jun-18 01:30N 63°40' E 009°02'0 0.0
2018-Jun-18 01:00N 63°40' E 009°02'0 0.0
2018-Jun-18 00:30N 63°40' E 009°02'0 0.0
2018-Jun-18 00:00N 63°40' E 009°02'0 0.0
2018-Jun-17 23:30N 63°40' E 009°02'0 0.7
2018-Jun-17 23:00N 63°40' E 009°01'0 0.7
2018-Jun-17 22:29N 63°40' E 009°00'0 0.0
2018-Jun-17 22:00N 63°40' E 009°00'0 0.1
2018-Jun-17 21:30N 63°40' E 009°00'1 2.0
2018-Jun-17 21:00N 63°41' E 008°59'4 7.1
2018-Jun-17 20:29N 63°45' E 008°60'4 7.4
2018-Jun-17 19:59N 63°48' E 008°58'4 9.2
2018-Jun-17 19:30N 63°50' E 008°49'510.0
2018-Jun-17 19:00N 63°50' E 008°38'5 9.4
2018-Jun-17 18:30N 63°49' E 008°28'0 0.4
2018-Jun-17 18:00N 63°49' E 008°28'0 0.0
2018-Jun-17 17:30N 63°49' E 008°28'0 0.0
2018-Jun-17 17:00N 63°49' E 008°28'0 0.0
2018-Jun-17 16:30N 63°49' E 008°28'0 0.0
2018-Jun-17 16:00N 63°49' E 008°28'0 0.0
2018-Jun-17 15:27N 63°49' E 008°28'0 0.6
2018-Jun-17 15:00N 63°49' E 008°28'4 8.6
2018-Jun-17 14:30N 63°50' E 008°37'611.1
2018-Jun-17 14:00N 63°50' E 008°50'5 9.7
2018-Jun-17 13:30N 63°47' E 008°58'5 8.6
2018-Jun-17 12:59N 63°44' E 008°50'0 0.0
2018-Jun-17 12:29N 63°44' E 008°50'0 0.0
2018-Jun-17 11:59N 63°44' E 008°50'0 0.0
2018-Jun-17 11:29N 63°44' E 008°50'0 0.0
2018-Jun-17 10:59N 63°44' E 008°50'0 0.0
2018-Jun-17 10:29N 63°44' E 008°50'0 0.0
2018-Jun-17 09:59N 63°44' E 008°50'0 0.0
2018-Jun-17 09:29N 63°44' E 008°50'0 0.0
2018-Jun-17 08:59N 63°44' E 008°50'0 0.0
2018-Jun-17 08:29N 63°44' E 008°50'0 0.0
2018-Jun-17 07:59N 63°44' E 008°50'0 0.0
2018-Jun-17 07:29N 63°44' E 008°50'0 0.0
2018-Jun-17 06:59N 63°44' E 008°50'0 0.0
2018-Jun-17 06:29N 63°44' E 008°50'0 0.0
2018-Jun-17 05:59N 63°44' E 008°50'0 0.0
2018-Jun-17 05:29N 63°44' E 008°50'0 0.0
2018-Jun-17 04:59N 63°44' E 008°50'0 0.0
2018-Jun-17 04:29N 63°44' E 008°50'0 0.0
2018-Jun-17 03:59N 63°44' E 008°50'0 0.0
2018-Jun-17 03:29N 63°44' E 008°50'0 0.0
2018-Jun-17 02:59N 63°44' E 008°50'0 0.0
2018-Jun-17 02:29N 63°44' E 008°50'0 0.0
2018-Jun-17 01:59N 63°44' E 008°50'0 0.0
2018-Jun-17 01:29N 63°44' E 008°50'0 0.0
2018-Jun-17 00:59N 63°44' E 008°50'0 0.0
2018-Jun-17 00:29N 63°44' E 008°50'0 0.0
2018-Jun-16 23:59N 63°44' E 008°50'0 0.0
2018-Jun-16 23:29N 63°44' E 008°50'0 0.0
2018-Jun-16 22:59N 63°44' E 008°50'0 0.0
2018-Jun-16 22:29N 63°44' E 008°50'0 0.0
2018-Jun-16 21:59N 63°44' E 008°50'0 0.0
2018-Jun-16 21:29N 63°44' E 008°50'0 0.0
2018-Jun-16 20:59N 63°44' E 008°50'0 0.0
2018-Jun-16 20:29N 63°44' E 008°50'0 0.0
2018-Jun-16 19:59N 63°44' E 008°50'0 0.0
2018-Jun-16 19:29N 63°44' E 008°50'0 0.0
2018-Jun-16 19:00N 63°44' E 008°50'0 0.0
2018-Jun-16 18:29N 63°44' E 008°50'0 0.0
2018-Jun-16 17:59N 63°44' E 008°50'0 0.0
2018-Jun-16 17:29N 63°44' E 008°50'0 0.0
2018-Jun-16 16:59N 63°44' E 008°50'0 0.0
2018-Jun-16 16:29N 63°44' E 008°50'0 0.0
2018-Jun-16 15:59N 63°44' E 008°50'0 0.0
2018-Jun-16 15:29N 63°44' E 008°50'0 0.0
2018-Jun-16 14:59N 63°44' E 008°50'0 0.0
2018-Jun-16 14:30N 63°44' E 008°50'0 0.0
2018-Jun-16 13:59N 63°44' E 008°50'0 0.0
2018-Jun-16 13:29N 63°44' E 008°50'0 0.0
2018-Jun-16 12:59N 63°44' E 008°50'0 0.0
2018-Jun-16 12:29N 63°44' E 008°50'0 0.0
2018-Jun-16 11:59N 63°44' E 008°50'0 0.0
2018-Jun-16 11:29N 63°44' E 008°50'0 0.0
2018-Jun-16 10:59N 63°44' E 008°50'0 0.0
2018-Jun-16 10:29N 63°44' E 008°50'0 0.0
2018-Jun-16 09:59N 63°44' E 008°50'0 0.0
2018-Jun-16 09:29N 63°44' E 008°50'0 0.0
2018-Jun-16 08:59N 63°44' E 008°50'0 0.0
2018-Jun-16 08:29N 63°44' E 008°50'0 0.0
2018-Jun-16 07:59N 63°44' E 008°50'0 0.0
2018-Jun-16 07:29N 63°44' E 008°50'0 0.0
2018-Jun-16 06:59N 63°44' E 008°50'0 0.0
2018-Jun-16 06:29N 63°44' E 008°50'0 0.0
2018-Jun-16 05:56N 63°44' E 008°50'0 0.0
2018-Jun-16 05:29N 63°44' E 008°50'0 0.0
2018-Jun-16 04:59N 63°44' E 008°50'0 0.0
2018-Jun-16 04:29N 63°44' E 008°50'0 0.0
2018-Jun-16 03:59N 63°44' E 008°50'0 0.0
2018-Jun-16 03:29N 63°44' E 008°50'0 0.0
2018-Jun-16 02:59N 63°44' E 008°50'0 0.0
2018-Jun-16 02:29N 63°44' E 008°50'0 0.0
2018-Jun-16 01:59N 63°44' E 008°50'0 0.0
2018-Jun-16 01:29N 63°44' E 008°50'0 0.0
2018-Jun-16 00:59N 63°44' E 008°50'0 0.0
2018-Jun-16 00:29N 63°44' E 008°50'0 0.0
2018-Jun-15 23:59N 63°44' E 008°50'0 0.0
2018-Jun-15 23:29N 63°44' E 008°50'0 0.0
2018-Jun-15 22:59N 63°44' E 008°50'0 0.0
2018-Jun-15 22:29N 63°44' E 008°50'0 0.0
2018-Jun-15 21:59N 63°44' E 008°50'0 0.0
2018-Jun-15 21:29N 63°44' E 008°50'0 0.0
2018-Jun-15 20:59N 63°44' E 008°50'0 0.0
2018-Jun-15 20:29N 63°44' E 008°50'0 0.0
2018-Jun-15 19:59N 63°44' E 008°50'0 0.0
2018-Jun-15 19:29N 63°44' E 008°50'0 0.0
2018-Jun-15 18:59N 63°44' E 008°50'0 0.0
2018-Jun-15 18:29N 63°44' E 008°50'0 0.0
2018-Jun-15 17:59N 63°44' E 008°50'0 0.0
2018-Jun-15 17:29N 63°44' E 008°50'0 0.0
2018-Jun-15 16:59N 63°44' E 008°50'0 0.0
2018-Jun-15 16:29N 63°44' E 008°50'0 0.0
2018-Jun-15 15:59N 63°44' E 008°50'0 0.0
2018-Jun-15 15:29N 63°44' E 008°50'0 0.0
2018-Jun-15 14:59N 63°44' E 008°50'0 0.0
2018-Jun-15 14:29N 63°44' E 008°50'0 0.0
2018-Jun-15 13:59N 63°44' E 008°50'0 0.0
2018-Jun-15 13:29N 63°44' E 008°50'0 0.0
2018-Jun-15 12:59N 63°44' E 008°50'0 0.0
2018-Jun-15 12:29N 63°44' E 008°50'0 0.0
2018-Jun-15 11:59N 63°44' E 008°50'0 0.0
2018-Jun-15 11:29N 63°44' E 008°50'0 0.0
2018-Jun-15 11:00N 63°44' E 008°50'0 0.0
2018-Jun-15 10:29N 63°44' E 008°50'0 0.0
2018-Jun-15 09:59N 63°44' E 008°50'0 0.0
2018-Jun-15 09:29N 63°44' E 008°50'0 0.0
2018-Jun-15 08:59N 63°44' E 008°50'0 0.0
2018-Jun-15 08:30N 63°44' E 008°50'0 0.0
2018-Jun-15 07:59N 63°44' E 008°50'0 0.0
2018-Jun-15 07:29N 63°44' E 008°50'0 0.0
2018-Jun-15 06:59N 63°44' E 008°50'0 0.0
2018-Jun-15 06:29N 63°44' E 008°50'0 0.0
2018-Jun-15 05:59N 63°44' E 008°50'0 0.0
2018-Jun-15 05:29N 63°44' E 008°50'0 0.0
2018-Jun-15 04:59N 63°44' E 008°50'0 0.0
2018-Jun-15 04:29N 63°44' E 008°50'0 0.0
2018-Jun-15 03:56N 63°44' E 008°50'0 0.0
2018-Jun-15 03:29N 63°44' E 008°50'0 0.0
2018-Jun-15 02:59N 63°44' E 008°50'0 0.0
2018-Jun-15 02:29N 63°44' E 008°50'0 0.0
2018-Jun-15 01:59N 63°44' E 008°50'0 0.0
2018-Jun-15 01:29N 63°44' E 008°50'0 0.0
2018-Jun-15 00:59N 63°44' E 008°50'0 0.0
2018-Jun-15 00:29N 63°44' E 008°50'0 0.0
2018-Jun-14 23:59N 63°44' E 008°50'0 0.0
2018-Jun-14 23:29N 63°44' E 008°50'0 0.0
2018-Jun-14 22:59N 63°44' E 008°50'0 0.0
2018-Jun-14 22:29N 63°44' E 008°50'0 0.0
2018-Jun-14 21:59N 63°44' E 008°50'0 0.0
2018-Jun-14 21:30N 63°44' E 008°50'0 0.0
2018-Jun-14 20:59N 63°44' E 008°50'0 0.0
2018-Jun-14 20:29N 63°44' E 008°50'0 0.0
2018-Jun-14 19:59N 63°44' E 008°50'0 0.0
2018-Jun-14 19:29N 63°44' E 008°50'0 0.0
2018-Jun-14 18:59N 63°44' E 008°50'0 0.0
2018-Jun-14 18:29N 63°44' E 008°50'0 0.0
2018-Jun-14 17:59N 63°44' E 008°50'0 0.0
2018-Jun-14 17:29N 63°44' E 008°50'0 0.0
2018-Jun-14 16:59N 63°44' E 008°50'0 0.0
2018-Jun-14 16:29N 63°44' E 008°50'0 0.0
2018-Jun-14 15:59N 63°44' E 008°50'0 0.0
2018-Jun-14 15:29N 63°44' E 008°50'0 0.0
2018-Jun-14 14:56N 63°44' E 008°50'0 0.0
2018-Jun-14 14:29N 63°44' E 008°50'0 0.0
2018-Jun-14 13:59N 63°44' E 008°50'0 0.0
2018-Jun-14 13:29N 63°44' E 008°50'0 0.0
2018-Jun-14 12:59N 63°44' E 008°50'0 0.0
2018-Jun-14 12:29N 63°44' E 008°50'0 0.0
2018-Jun-14 11:59N 63°44' E 008°50'0 0.0
2018-Jun-14 11:29N 63°44' E 008°50'0 0.0
2018-Jun-14 10:59N 63°44' E 008°50'0 0.0
2018-Jun-14 10:29N 63°44' E 008°50'0 0.0
2018-Jun-14 09:56N 63°44' E 008°50'0 0.0
2018-Jun-14 09:29N 63°44' E 008°50'1 1.9
2018-Jun-14 09:00N 63°43' E 008°51'3 5.2
2018-Jun-14 08:30N 63°42' E 008°56'3 5.5
2018-Jun-14 08:00N 63°40' E 009°00'1 1.4
2018-Jun-14 07:30N 63°40' E 009°02'0 0.0
2018-Jun-14 07:00N 63°40' E 009°02'0 0.0
2018-Jun-14 06:30N 63°40' E 009°02'0 0.0
2018-Jun-14 06:00N 63°40' E 009°02'0 0.0
2018-Jun-14 05:30N 63°40' E 009°02'0 0.0
2018-Jun-14 05:00N 63°40' E 009°02'0 0.0
2018-Jun-14 04:30N 63°40' E 009°02'0 0.0
2018-Jun-14 04:00N 63°40' E 009°02'0 0.0
2018-Jun-14 03:30N 63°40' E 009°02'0 0.0
2018-Jun-14 03:00N 63°40' E 009°02'0 0.0
2018-Jun-14 02:30N 63°40' E 009°02'0 0.0
2018-Jun-14 02:00N 63°40' E 009°02'0 0.0
2018-Jun-14 01:30N 63°40' E 009°02'0 0.0
2018-Jun-14 01:00N 63°40' E 009°02'0 0.0
2018-Jun-14 00:30N 63°40' E 009°02'1 2.0
2018-Jun-14 00:00N 63°40' E 008°60'510.3
2018-Jun-13 23:29N 63°46' E 008°60'510.2
2018-Jun-13 23:00N 63°51' E 008°57'510.1
2018-Jun-13 22:30N 63°51' E 008°46'510.4
2018-Jun-13 21:59N 63°50' E 008°34'3 5.8
2018-Jun-13 21:29N 63°49' E 008°28'0 0.0
2018-Jun-13 21:00N 63°49' E 008°28'0 0.0
2018-Jun-13 20:30N 63°49' E 008°28'0 0.0
2018-Jun-13 20:00N 63°49' E 008°28'0 0.0
2018-Jun-13 19:30N 63°49' E 008°28'0 0.0
2018-Jun-13 19:00N 63°49' E 008°28'0 0.2
2018-Jun-13 18:30N 63°49' E 008°28'0 0.5
2018-Jun-13 18:00N 63°49' E 008°28'0 0.4
2018-Jun-13 17:29N 63°48' E 008°28'2 4.6
2018-Jun-13 17:00N 63°47' E 008°25'5 9.6
2018-Jun-13 16:30N 63°44' E 008°17'510.2
2018-Jun-13 16:00N 63°39' E 008°13'611.7
2018-Jun-13 15:30N 63°33' E 008°13'612.2
2018-Jun-13 15:00N 63°27' E 008°14'612.1
2018-Jun-13 14:30N 63°21' E 008°18'611.2
2018-Jun-13 14:00N 63°17' E 008°11'611.6
2018-Jun-13 13:30N 63°14' E 007°59'611.8
2018-Jun-13 13:00N 63°11' E 007°48'3 6.6
2018-Jun-13 12:29N 63°07' E 007°46'0 0.0
2018-Jun-13 11:59N 63°07' E 007°46'0 0.0
2018-Jun-13 11:29N 63°07' E 007°46'0 0.0
2018-Jun-13 10:59N 63°07' E 007°46'0 0.0
2018-Jun-13 10:29N 63°07' E 007°46'0 0.0
2018-Jun-13 10:00N 63°07' E 007°46'0 0.0
2018-Jun-13 09:30N 63°07' E 007°46'0 0.0
2018-Jun-13 09:00N 63°07' E 007°46'0 0.0
2018-Jun-13 08:30N 63°07' E 007°46'0 0.0
2018-Jun-13 08:00N 63°07' E 007°46'0 0.0
2018-Jun-13 07:30N 63°07' E 007°46'0 0.0
2018-Jun-13 07:00N 63°07' E 007°46'0 0.0
2018-Jun-13 06:30N 63°07' E 007°46'0 0.0
2018-Jun-13 06:00N 63°07' E 007°46'0 0.0
2018-Jun-13 05:30N 63°07' E 007°46'0 0.0
2018-Jun-13 05:00N 63°07' E 007°46'0 0.0
2018-Jun-13 04:30N 63°07' E 007°46'0 0.0
2018-Jun-13 04:00N 63°07' E 007°46'0 0.0
2018-Jun-13 03:30N 63°07' E 007°46'0 0.0
2018-Jun-13 03:00N 63°07' E 007°46'0 0.0
2018-Jun-13 02:30N 63°07' E 007°46'0 0.0
2018-Jun-13 02:00N 63°07' E 007°46'0 0.0
2018-Jun-13 01:30N 63°07' E 007°46'0 0.0
2018-Jun-13 01:00N 63°07' E 007°46'0 0.0
2018-Jun-13 00:30N 63°07' E 007°46'0 0.0
2018-Jun-13 00:00N 63°07' E 007°46'0 0.0
2018-Jun-12 23:30N 63°07' E 007°46'0 0.0
2018-Jun-12 23:00N 63°07' E 007°46'0 0.0
2018-Jun-12 22:30N 63°07' E 007°46'0 0.0
2018-Jun-12 22:00N 63°07' E 007°46'0 0.0
2018-Jun-12 21:30N 63°07' E 007°46'0 0.0
2018-Jun-12 21:00N 63°07' E 007°46'0 0.0
2018-Jun-12 20:30N 63°07' E 007°46'0 0.0
2018-Jun-12 20:00N 63°07' E 007°46'0 0.0
2018-Jun-12 19:30N 63°07' E 007°46'0 0.0
2018-Jun-12 19:00N 63°07' E 007°46'0 0.0
2018-Jun-12 18:30N 63°07' E 007°46'0 0.0
2018-Jun-12 18:00N 63°07' E 007°46'0 0.0
2018-Jun-12 17:30N 63°07' E 007°46'0 0.0
2018-Jun-12 17:00N 63°07' E 007°46'0 0.0
2018-Jun-12 16:30N 63°07' E 007°46'0 0.0
2018-Jun-12 16:00N 63°07' E 007°46'0 0.0
2018-Jun-12 15:30N 63°07' E 007°46'1 2.8
2018-Jun-12 15:01N 63°09' E 007°47'1 1.2
2018-Jun-12 14:30N 63°09' E 007°46'0 0.1
2018-Jun-12 14:00N 63°09' E 007°46'1 1.7
2018-Jun-12 13:31N 63°10' E 007°46'0 0.5
2018-Jun-12 13:00N 63°10' E 007°47'1 1.8
2018-Jun-12 12:31N 63°09' E 007°47'0 0.6
2018-Jun-12 12:00N 63°09' E 007°48'2 3.0
2018-Jun-12 11:30N 63°07' E 007°46'0 0.0
2018-Jun-12 10:58N 63°07' E 007°46'0 0.0
2018-Jun-12 10:28N 63°07' E 007°46'0 0.0
2018-Jun-12 09:58N 63°07' E 007°46'0 0.0
2018-Jun-12 09:28N 63°07' E 007°46'0 0.0
2018-Jun-12 08:58N 63°07' E 007°46'0 0.0
2018-Jun-12 08:28N 63°07' E 007°46'0 0.0
2018-Jun-12 08:01N 63°07' E 007°46'0 0.0
2018-Jun-12 07:30N 63°07' E 007°46'1 1.9
2018-Jun-12 07:01N 63°08' E 007°48'2 3.6
2018-Jun-12 06:30N 63°08' E 007°44'1 2.9
2018-Jun-12 06:01N 63°08' E 007°41'0 0.4
2018-Jun-12 05:30N 63°08' E 007°41'1 2.1
2018-Jun-12 05:00N 63°08' E 007°39'1 1.5
2018-Jun-12 04:30N 63°08' E 007°37'0 0.6
2018-Jun-12 04:01N 63°08' E 007°38'2 4.3
2018-Jun-12 03:30N 63°07' E 007°33'5 9.7
2018-Jun-12 03:00N 63°04' E 007°24'510.3
2018-Jun-12 02:30N 63°02' E 007°14'510.2
2018-Jun-12 02:01N 63°00' E 007°03'510.0
2018-Jun-12 01:30N 62°58' E 006°53'5 9.9
2018-Jun-12 01:00N 62°54' E 006°46'510.3
2018-Jun-12 00:29N 62°50' E 006°40'510.7
2018-Jun-12 00:00N 62°46' E 006°34'510.8
2018-Jun-11 23:30N 62°41' E 006°27'510.1
2018-Jun-11 22:59N 62°37' E 006°20'5 9.9
2018-Jun-11 22:31N 62°34' E 006°12'510.3
2018-Jun-11 22:01N 62°29' E 006°08'2 4.1
2018-Jun-11 21:30N 62°27' E 006°10'1 1.9
2018-Jun-11 21:00N 62°28' E 006°08'0 0.0
2018-Jun-11 20:30N 62°28' E 006°08'0 0.0
2018-Jun-11 20:00N 62°28' E 006°08'0 0.0
2018-Jun-11 19:30N 62°28' E 006°08'0 0.0
2018-Jun-11 19:00N 62°28' E 006°08'0 0.0
2018-Jun-11 18:30N 62°28' E 006°08'1 2.7
2018-Jun-11 18:00N 62°28' E 006°11'3 5.9
2018-Jun-11 17:30N 62°27' E 006°17'0 0.0
2018-Jun-11 17:00N 62°27' E 006°17'0 0.0
2018-Jun-11 16:30N 62°27' E 006°17'0 0.0
2018-Jun-11 16:00N 62°27' E 006°17'0 0.0
2018-Jun-11 15:30N 62°27' E 006°17'0 0.0
2018-Jun-11 15:00N 62°27' E 006°17'0 0.0
2018-Jun-11 14:30N 62°27' E 006°17'0 0.0
2018-Jun-11 14:00N 62°27' E 006°17'0 0.0
2018-Jun-11 13:30N 62°27' E 006°17'0 0.0
2018-Jun-11 13:00N 62°27' E 006°17'0 0.0
2018-Jun-11 12:30N 62°27' E 006°17'0 0.0
2018-Jun-11 12:00N 62°27' E 006°17'0 0.0
2018-Jun-11 11:30N 62°27' E 006°17'0 0.0
2018-Jun-11 11:00N 62°27' E 006°17'0 0.0
2018-Jun-11 10:30N 62°27' E 006°17'0 0.0
2018-Jun-11 10:00N 62°27' E 006°17'0 0.0
2018-Jun-11 09:30N 62°27' E 006°17'0 0.0
2018-Jun-11 09:00N 62°27' E 006°17'0 0.0
2018-Jun-11 08:30N 62°27' E 006°17'0 0.0
2018-Jun-11 08:00N 62°27' E 006°17'0 0.0
2018-Jun-11 07:30N 62°27' E 006°17'0 0.0
2018-Jun-11 07:00N 62°27' E 006°17'0 0.0
2018-Jun-11 06:30N 62°27' E 006°17'0 0.0
2018-Jun-11 06:00N 62°27' E 006°17'0 0.0
2018-Jun-11 05:30N 62°27' E 006°17'0 0.0
2018-Jun-11 05:00N 62°27' E 006°17'0 0.0
2018-Jun-11 04:30N 62°27' E 006°17'0 0.0
2018-Jun-11 04:00N 62°27' E 006°17'0 0.0
2018-Jun-11 03:30N 62°27' E 006°17'0 0.0
2018-Jun-11 03:00N 62°27' E 006°17'0 0.0
2018-Jun-11 02:30N 62°27' E 006°17'0 0.0
2018-Jun-11 02:00N 62°27' E 006°17'0 0.0
2018-Jun-11 01:30N 62°27' E 006°17'0 0.0
2018-Jun-11 00:57N 62°27' E 006°17'0 0.0
2018-Jun-11 00:30N 62°27' E 006°17'0 0.0
2018-Jun-10 23:57N 62°27' E 006°17'0 0.0
2018-Jun-10 23:30N 62°27' E 006°17'0 0.0
2018-Jun-10 23:00N 62°27' E 006°17'0 0.0
2018-Jun-10 22:30N 62°27' E 006°17'0 0.0
2018-Jun-10 22:00N 62°27' E 006°17'0 0.0
2018-Jun-10 21:30N 62°27' E 006°17'0 0.0
2018-Jun-10 21:00N 62°27' E 006°17'0 0.0
2018-Jun-10 20:30N 62°27' E 006°17'0 0.0
2018-Jun-10 20:00N 62°27' E 006°17'0 0.0
2018-Jun-10 19:30N 62°27' E 006°17'0 0.0
2018-Jun-10 19:00N 62°27' E 006°17'0 0.0
2018-Jun-10 18:30N 62°27' E 006°17'0 0.0
2018-Jun-10 18:00N 62°27' E 006°17'0 0.0
2018-Jun-10 17:30N 62°27' E 006°17'0 0.0
2018-Jun-10 17:00N 62°27' E 006°17'0 0.0
2018-Jun-10 16:30N 62°27' E 006°17'0 0.0
2018-Jun-10 16:00N 62°27' E 006°17'0 0.0
2018-Jun-10 15:30N 62°27' E 006°17'0 0.0
2018-Jun-10 14:57N 62°27' E 006°17'0 0.0
2018-Jun-10 14:00N 62°27' E 006°17'0 0.0
2018-Jun-10 13:30N 62°27' E 006°17'0 0.0
2018-Jun-10 13:00N 62°27' E 006°17'0 0.0
2018-Jun-10 12:30N 62°27' E 006°17'0 0.0
2018-Jun-10 12:00N 62°27' E 006°17'0 0.0
2018-Jun-10 11:30N 62°27' E 006°17'0 0.0
2018-Jun-10 11:00N 62°27' E 006°17'0 0.0
2018-Jun-10 10:30N 62°27' E 006°17'0 0.0
2018-Jun-10 10:00N 62°27' E 006°17'0 0.0
2018-Jun-10 09:30N 62°27' E 006°17'0 0.0
2018-Jun-10 08:57N 62°27' E 006°17'0 0.0
2018-Jun-10 08:30N 62°27' E 006°17'0 0.0
2018-Jun-10 08:00N 62°27' E 006°17'0 0.0
2018-Jun-10 07:30N 62°27' E 006°17'0 0.0
2018-Jun-10 07:00N 62°27' E 006°17'0 0.0
2018-Jun-10 06:30N 62°27' E 006°17'0 0.0
2018-Jun-10 06:00N 62°27' E 006°17'0 0.0
2018-Jun-10 05:30N 62°27' E 006°17'0 0.0
2018-Jun-10 05:00N 62°27' E 006°17'0 0.0
2018-Jun-10 04:30N 62°27' E 006°17'0 0.0
2018-Jun-10 04:00N 62°27' E 006°17'0 0.0
2018-Jun-10 03:30N 62°27' E 006°17'0 0.0
2018-Jun-10 03:00N 62°27' E 006°17'0 0.0
2018-Jun-10 02:30N 62°27' E 006°17'0 0.0
2018-Jun-10 02:00N 62°27' E 006°17'0 0.0
2018-Jun-10 01:30N 62°27' E 006°17'0 0.0
2018-Jun-10 01:00N 62°27' E 006°17'0 0.0
2018-Jun-10 00:30N 62°27' E 006°17'0 0.0
2018-Jun-09 23:57N 62°27' E 006°17'0 0.0
2018-Jun-09 23:30N 62°27' E 006°17'0 0.0
2018-Jun-09 23:00N 62°27' E 006°17'0 0.0
2018-Jun-09 22:30N 62°27' E 006°17'0 0.0
2018-Jun-09 22:00N 62°27' E 006°17'0 0.0
2018-Jun-09 21:30N 62°27' E 006°17'0 0.0
2018-Jun-09 21:00N 62°27' E 006°17'0 0.0
2018-Jun-09 20:30N 62°27' E 006°17'0 0.0
2018-Jun-09 20:00N 62°27' E 006°17'0 0.0
2018-Jun-09 19:30N 62°27' E 006°17'0 0.0
2018-Jun-09 19:00N 62°27' E 006°17'0 0.0
2018-Jun-09 18:30N 62°27' E 006°17'0 0.0
2018-Jun-09 18:00N 62°27' E 006°17'0 0.0
2018-Jun-09 17:30N 62°27' E 006°17'0 0.0
2018-Jun-09 17:00N 62°27' E 006°17'0 0.0
2018-Jun-09 16:30N 62°27' E 006°17'0 0.0
2018-Jun-09 16:00N 62°27' E 006°17'0 0.0
2018-Jun-09 15:00N 62°27' E 006°17'0 0.0
2018-Jun-09 14:30N 62°27' E 006°17'0 0.0
2018-Jun-09 14:00N 62°27' E 006°17'0 0.0
2018-Jun-09 13:30N 62°27' E 006°17'0 0.0
2018-Jun-09 13:00N 62°27' E 006°17'0 0.0
2018-Jun-09 12:30N 62°27' E 006°17'0 0.0
2018-Jun-09 12:00N 62°27' E 006°17'0 0.0
2018-Jun-09 11:30N 62°27' E 006°17'0 0.0
2018-Jun-09 11:00N 62°27' E 006°17'0 0.0
2018-Jun-09 10:30N 62°27' E 006°17'0 0.0
2018-Jun-09 10:00N 62°27' E 006°17'0 0.0
2018-Jun-09 09:30N 62°27' E 006°17'0 0.0
2018-Jun-09 09:00N 62°27' E 006°17'0 0.0
2018-Jun-09 08:30N 62°27' E 006°17'0 0.0
2018-Jun-09 08:00N 62°27' E 006°17'0 0.0
2018-Jun-09 07:30N 62°27' E 006°17'0 0.0
2018-Jun-09 07:00N 62°27' E 006°17'0 0.0
2018-Jun-09 06:30N 62°27' E 006°17'0 0.0
2018-Jun-09 06:00N 62°27' E 006°17'0 0.0
2018-Jun-09 05:30N 62°27' E 006°17'0 0.0
2018-Jun-09 05:00N 62°27' E 006°17'0 0.0
2018-Jun-09 04:30N 62°27' E 006°17'0 0.0
2018-Jun-09 04:00N 62°27' E 006°17'0 0.0
2018-Jun-09 03:30N 62°27' E 006°17'0 0.0
2018-Jun-09 03:00N 62°27' E 006°17'0 0.0
2018-Jun-09 02:30N 62°27' E 006°17'0 0.0
2018-Jun-09 02:00N 62°27' E 006°17'0 0.0
2018-Jun-09 01:30N 62°27' E 006°17'0 0.0
2018-Jun-09 01:00N 62°27' E 006°17'0 0.0
2018-Jun-09 00:30N 62°27' E 006°17'0 0.0
2018-Jun-09 00:00N 62°27' E 006°17'0 0.0
2018-Jun-08 23:30N 62°27' E 006°17'0 0.0
2018-Jun-08 23:00N 62°27' E 006°17'0 0.0
2018-Jun-08 22:30N 62°27' E 006°17'0 0.0
2018-Jun-08 22:00N 62°27' E 006°17'0 0.0
2018-Jun-08 21:30N 62°27' E 006°17'0 0.0
2018-Jun-08 20:54N 62°27' E 006°17'0 0.0
2018-Jun-08 20:30N 62°27' E 006°17'0 0.0
2018-Jun-08 20:00N 62°27' E 006°17'0 0.0
2018-Jun-08 19:27N 62°27' E 006°17'0 0.0
2018-Jun-08 19:00N 62°27' E 006°17'0 0.0
2018-Jun-08 18:30N 62°27' E 006°17'0 0.0
2018-Jun-08 18:00N 62°27' E 006°17'0 0.0
2018-Jun-08 17:30N 62°27' E 006°17'0 0.0
2018-Jun-08 17:00N 62°27' E 006°17'0 0.0
2018-Jun-08 16:30N 62°27' E 006°17'0 0.0
2018-Jun-08 16:00N 62°27' E 006°17'  
Track history (hours):
 
Tides and Currents Weather Stations Pressure Air Temp Water Temp Dewpoint Dewpoint Depression Visibility Wind Speed Wind Dir Waves Ship Positions

Gaasoe Jarl

Last reported at 2018-Jun-18 15:30 UTC. Time now 2018-Jun-18 15:35 UTC.
Position N 63°50' E 008°54'.

Length 85 m; draft 6.5 m.

Type: Cargo ship. MMSI: 257075000.

Date/timePositionNaut miles runAvg speedWind from/ knotsBaromVisibWave heightAir tempDewpointWater temp
2018-Jun-18 15:30N 63°50' E 008°54'611.3
2018-Jun-18 15:00N 63°51' E 008°41'611.6
2018-Jun-18 14:30N 63°49' E 008°28'1 1.3
2018-Jun-18 14:00N 63°49' E 008°27'0 0.0
2018-Jun-18 13:30N 63°49' E 008°27'0 0.0
2018-Jun-18 13:00N 63°49' E 008°27'0 0.0
2018-Jun-18 12:30N 63°49' E 008°27'0 0.0
2018-Jun-18 12:00N 63°49' E 008°27'0 0.0
2018-Jun-18 11:29N 63°49' E 008°27'0 0.2
2018-Jun-18 11:00N 63°49' E 008°28'2 4.9
2018-Jun-18 10:30N 63°49' E 008°33'5 9.1
2018-Jun-18 10:00N 63°51' E 008°43'4 8.7
2018-Jun-18 09:30N 63°50' E 008°52'4 8.8
2018-Jun-18 09:00N 63°47' E 008°60'5 9.5
2018-Jun-18 08:30N 63°42' E 008°60'2 4.4
2018-Jun-18 08:00N 63°40' E 009°01'0 0.6
2018-Jun-18 07:30N 63°40' E 009°02'0 0.0
2018-Jun-18 07:00N 63°40' E 009°02'0 0.0
2018-Jun-18 06:30N 63°40' E 009°02'0 0.0
2018-Jun-18 06:00N 63°40' E 009°02'0 0.0
2018-Jun-18 05:30N 63°40' E 009°02'0 0.0
2018-Jun-18 05:00N 63°40' E 009°02'0 0.0
2018-Jun-18 04:30N 63°40' E 009°02'0 0.0
2018-Jun-18 04:00N 63°40' E 009°02'0 0.0
2018-Jun-18 03:30N 63°40' E 009°02'0 0.0
2018-Jun-18 03:00N 63°40' E 009°02'0 0.0
2018-Jun-18 02:30N 63°40' E 009°02'0 0.0
2018-Jun-18 02:00N 63°40' E 009°02'0 0.0
2018-Jun-18 01:30N 63°40' E 009°02'0 0.0
2018-Jun-18 01:00N 63°40' E 009°02'0 0.0
2018-Jun-18 00:30N 63°40' E 009°02'0 0.0
2018-Jun-18 00:00N 63°40' E 009°02'0 0.0
2018-Jun-17 23:30N 63°40' E 009°02'0 0.7
2018-Jun-17 23:00N 63°40' E 009°01'0 0.7
2018-Jun-17 22:29N 63°40' E 009°00'0 0.0
2018-Jun-17 22:00N 63°40' E 009°00'0 0.1
2018-Jun-17 21:30N 63°40' E 009°00'1 2.0
2018-Jun-17 21:00N 63°41' E 008°59'4 7.1
2018-Jun-17 20:29N 63°45' E 008°60'4 7.4
2018-Jun-17 19:59N 63°48' E 008°58'4 9.2
2018-Jun-17 19:30N 63°50' E 008°49'510.0
2018-Jun-17 19:00N 63°50' E 008°38'5 9.4
2018-Jun-17 18:30N 63°49' E 008°28'0 0.4
2018-Jun-17 18:00N 63°49' E 008°28'0 0.0
2018-Jun-17 17:30N 63°49' E 008°28'0 0.0
2018-Jun-17 17:00N 63°49' E 008°28'0 0.0
2018-Jun-17 16:30N 63°49' E 008°28'0 0.0
2018-Jun-17 16:00N 63°49' E 008°28'0 0.0
2018-Jun-17 15:27N 63°49' E 008°28'0 0.6
2018-Jun-17 15:00N 63°49' E 008°28'4 8.6
2018-Jun-17 14:30N 63°50' E 008°37'611.1
2018-Jun-17 14:00N 63°50' E 008°50'5 9.7
2018-Jun-17 13:30N 63°47' E 008°58'5 8.6
2018-Jun-17 12:59N 63°44' E 008°50'0 0.0
2018-Jun-17 12:29N 63°44' E 008°50'0 0.0
2018-Jun-17 11:59N 63°44' E 008°50'0 0.0
2018-Jun-17 11:29N 63°44' E 008°50'0 0.0
2018-Jun-17 10:59N 63°44' E 008°50'0 0.0
2018-Jun-17 10:29N 63°44' E 008°50'0 0.0
2018-Jun-17 09:59N 63°44' E 008°50'0 0.0
2018-Jun-17 09:29N 63°44' E 008°50'0 0.0
2018-Jun-17 08:59N 63°44' E 008°50'0 0.0
2018-Jun-17 08:29N 63°44' E 008°50'0 0.0
2018-Jun-17 07:59N 63°44' E 008°50'0 0.0
2018-Jun-17 07:29N 63°44' E 008°50'0 0.0
2018-Jun-17 06:59N 63°44' E 008°50'0 0.0
2018-Jun-17 06:29N 63°44' E 008°50'0 0.0
2018-Jun-17 05:59N 63°44' E 008°50'0 0.0
2018-Jun-17 05:29N 63°44' E 008°50'0 0.0
2018-Jun-17 04:59N 63°44' E 008°50'0 0.0
2018-Jun-17 04:29N 63°44' E 008°50'0 0.0
2018-Jun-17 03:59N 63°44' E 008°50'0 0.0
2018-Jun-17 03:29N 63°44' E 008°50'0 0.0
2018-Jun-17 02:59N 63°44' E 008°50'0 0.0
2018-Jun-17 02:29N 63°44' E 008°50'0 0.0
2018-Jun-17 01:59N 63°44' E 008°50'0 0.0
2018-Jun-17 01:29N 63°44' E 008°50'0 0.0
2018-Jun-17 00:59N 63°44' E 008°50'0 0.0
2018-Jun-17 00:29N 63°44' E 008°50'0 0.0
2018-Jun-16 23:59N 63°44' E 008°50'0 0.0
2018-Jun-16 23:29N 63°44' E 008°50'0 0.0
2018-Jun-16 22:59N 63°44' E 008°50'0 0.0
2018-Jun-16 22:29N 63°44' E 008°50'0 0.0
2018-Jun-16 21:59N 63°44' E 008°50'0 0.0
2018-Jun-16 21:29N 63°44' E 008°50'0 0.0
2018-Jun-16 20:59N 63°44' E 008°50'0 0.0
2018-Jun-16 20:29N 63°44' E 008°50'0 0.0
2018-Jun-16 19:59N 63°44' E 008°50'0 0.0
2018-Jun-16 19:29N 63°44' E 008°50'0 0.0
2018-Jun-16 19:00N 63°44' E 008°50'0 0.0
2018-Jun-16 18:29N 63°44' E 008°50'0 0.0
2018-Jun-16 17:59N 63°44' E 008°50'0 0.0
2018-Jun-16 17:29N 63°44' E 008°50'0 0.0
2018-Jun-16 16:59N 63°44' E 008°50'0 0.0
2018-Jun-16 16:29N 63°44' E 008°50'0 0.0
2018-Jun-16 15:59N 63°44' E 008°50'0 0.0
2018-Jun-16 15:29N 63°44' E 008°50'0 0.0
2018-Jun-16 14:59N 63°44' E 008°50'0 0.0
2018-Jun-16 14:30N 63°44' E 008°50'0 0.0
2018-Jun-16 13:59N 63°44' E 008°50'0 0.0
2018-Jun-16 13:29N 63°44' E 008°50'0 0.0
2018-Jun-16 12:59N 63°44' E 008°50'0 0.0
2018-Jun-16 12:29N 63°44' E 008°50'0 0.0
2018-Jun-16 11:59N 63°44' E 008°50'0 0.0
2018-Jun-16 11:29N 63°44' E 008°50'0 0.0
2018-Jun-16 10:59N 63°44' E 008°50'0 0.0
2018-Jun-16 10:29N 63°44' E 008°50'0 0.0
2018-Jun-16 09:59N 63°44' E 008°50'0 0.0
2018-Jun-16 09:29N 63°44' E 008°50'0 0.0
2018-Jun-16 08:59N 63°44' E 008°50'0 0.0
2018-Jun-16 08:29N 63°44' E 008°50'0 0.0
2018-Jun-16 07:59N 63°44' E 008°50'0 0.0
2018-Jun-16 07:29N 63°44' E 008°50'0 0.0
2018-Jun-16 06:59N 63°44' E 008°50'0 0.0
2018-Jun-16 06:29N 63°44' E 008°50'0 0.0
2018-Jun-16 05:56N 63°44' E 008°50'0 0.0
2018-Jun-16 05:29N 63°44' E 008°50'0 0.0
2018-Jun-16 04:59N 63°44' E 008°50'0 0.0
2018-Jun-16 04:29N 63°44' E 008°50'0 0.0
2018-Jun-16 03:59N 63°44' E 008°50'0 0.0
2018-Jun-16 03:29N 63°44' E 008°50'0 0.0
2018-Jun-16 02:59N 63°44' E 008°50'0 0.0
2018-Jun-16 02:29N 63°44' E 008°50'0 0.0
2018-Jun-16 01:59N 63°44' E 008°50'0 0.0
2018-Jun-16 01:29N 63°44' E 008°50'0 0.0
2018-Jun-16 00:59N 63°44' E 008°50'0 0.0
2018-Jun-16 00:29N 63°44' E 008°50'0 0.0
2018-Jun-15 23:59N 63°44' E 008°50'0 0.0
2018-Jun-15 23:29N 63°44' E 008°50'0 0.0
2018-Jun-15 22:59N 63°44' E 008°50'0 0.0
2018-Jun-15 22:29N 63°44' E 008°50'0 0.0
2018-Jun-15 21:59N 63°44' E 008°50'0 0.0
2018-Jun-15 21:29N 63°44' E 008°50'0 0.0
2018-Jun-15 20:59N 63°44' E 008°50'0 0.0
2018-Jun-15 20:29N 63°44' E 008°50'0 0.0
2018-Jun-15 19:59N 63°44' E 008°50'0 0.0
2018-Jun-15 19:29N 63°44' E 008°50'0 0.0
2018-Jun-15 18:59N 63°44' E 008°50'0 0.0
2018-Jun-15 18:29N 63°44' E 008°50'0 0.0
2018-Jun-15 17:59N 63°44' E 008°50'0 0.0
2018-Jun-15 17:29N 63°44' E 008°50'0 0.0
2018-Jun-15 16:59N 63°44' E 008°50'0 0.0
2018-Jun-15 16:29N 63°44' E 008°50'0 0.0
2018-Jun-15 15:59N 63°44' E 008°50'0 0.0
2018-Jun-15 15:29N 63°44' E 008°50'0 0.0
2018-Jun-15 14:59N 63°44' E 008°50'0 0.0
2018-Jun-15 14:29N 63°44' E 008°50'0 0.0
2018-Jun-15 13:59N 63°44' E 008°50'0 0.0
2018-Jun-15 13:29N 63°44' E 008°50'0 0.0
2018-Jun-15 12:59N 63°44' E 008°50'0 0.0
2018-Jun-15 12:29N 63°44' E 008°50'0 0.0
2018-Jun-15 11:59N 63°44' E 008°50'0 0.0
2018-Jun-15 11:29N 63°44' E 008°50'0 0.0
2018-Jun-15 11:00N 63°44' E 008°50'0 0.0
2018-Jun-15 10:29N 63°44' E 008°50'0 0.0
2018-Jun-15 09:59N 63°44' E 008°50'0 0.0
2018-Jun-15 09:29N 63°44' E 008°50'0 0.0
2018-Jun-15 08:59N 63°44' E 008°50'0 0.0
2018-Jun-15 08:30N 63°44' E 008°50'0 0.0
2018-Jun-15 07:59N 63°44' E 008°50'0 0.0
2018-Jun-15 07:29N 63°44' E 008°50'0 0.0
2018-Jun-15 06:59N 63°44' E 008°50'0 0.0
2018-Jun-15 06:29N 63°44' E 008°50'0 0.0
2018-Jun-15 05:59N 63°44' E 008°50'0 0.0
2018-Jun-15 05:29N 63°44' E 008°50'0 0.0
2018-Jun-15 04:59N 63°44' E 008°50'0 0.0
2018-Jun-15 04:29N 63°44' E 008°50'0 0.0
2018-Jun-15 03:56N 63°44' E 008°50'0 0.0
2018-Jun-15 03:29N 63°44' E 008°50'0 0.0
2018-Jun-15 02:59N 63°44' E 008°50'0 0.0
2018-Jun-15 02:29N 63°44' E 008°50'0 0.0
2018-Jun-15 01:59N 63°44' E 008°50'0 0.0
2018-Jun-15 01:29N 63°44' E 008°50'0 0.0
2018-Jun-15 00:59N 63°44' E 008°50'0 0.0
2018-Jun-15 00:29N 63°44' E 008°50'0 0.0
2018-Jun-14 23:59N 63°44' E 008°50'0 0.0
2018-Jun-14 23:29N 63°44' E 008°50'0 0.0
2018-Jun-14 22:59N 63°44' E 008°50'0 0.0
2018-Jun-14 22:29N 63°44' E 008°50'0 0.0
2018-Jun-14 21:59N 63°44' E 008°50'0 0.0
2018-Jun-14 21:30N 63°44' E 008°50'0 0.0
2018-Jun-14 20:59N 63°44' E 008°50'0 0.0
2018-Jun-14 20:29N 63°44' E 008°50'0 0.0
2018-Jun-14 19:59N 63°44' E 008°50'0 0.0
2018-Jun-14 19:29N 63°44' E 008°50'0 0.0
2018-Jun-14 18:59N 63°44' E 008°50'0 0.0
2018-Jun-14 18:29N 63°44' E 008°50'0 0.0
2018-Jun-14 17:59N 63°44' E 008°50'0 0.0
2018-Jun-14 17:29N 63°44' E 008°50'0 0.0
2018-Jun-14 16:59N 63°44' E 008°50'0 0.0
2018-Jun-14 16:29N 63°44' E 008°50'0 0.0
2018-Jun-14 15:59N 63°44' E 008°50'0 0.0
2018-Jun-14 15:29N 63°44' E 008°50'0 0.0
2018-Jun-14 14:56N 63°44' E 008°50'0 0.0
2018-Jun-14 14:29N 63°44' E 008°50'0 0.0
2018-Jun-14 13:59N 63°44' E 008°50'0 0.0
2018-Jun-14 13:29N 63°44' E 008°50'0 0.0
2018-Jun-14 12:59N 63°44' E 008°50'0 0.0
2018-Jun-14 12:29N 63°44' E 008°50'0 0.0
2018-Jun-14 11:59N 63°44' E 008°50'0 0.0
2018-Jun-14 11:29N 63°44' E 008°50'0 0.0
2018-Jun-14 10:59N 63°44' E 008°50'0 0.0
2018-Jun-14 10:29N 63°44' E 008°50'0 0.0
2018-Jun-14 09:56N 63°44' E 008°50'0 0.0
2018-Jun-14 09:29N 63°44' E 008°50'1 1.9
2018-Jun-14 09:00N 63°43' E 008°51'3 5.2
2018-Jun-14 08:30N 63°42' E 008°56'3 5.5
2018-Jun-14 08:00N 63°40' E 009°00'1 1.4
2018-Jun-14 07:30N 63°40' E 009°02'0 0.0
2018-Jun-14 07:00N 63°40' E 009°02'0 0.0
2018-Jun-14 06:30N 63°40' E 009°02'0 0.0
2018-Jun-14 06:00N 63°40' E 009°02'0 0.0
2018-Jun-14 05:30N 63°40' E 009°02'0 0.0
2018-Jun-14 05:00N 63°40' E 009°02'0 0.0
2018-Jun-14 04:30N 63°40' E 009°02'0 0.0
2018-Jun-14 04:00N 63°40' E 009°02'0 0.0
2018-Jun-14 03:30N 63°40' E 009°02'0 0.0
2018-Jun-14 03:00N 63°40' E 009°02'0 0.0
2018-Jun-14 02:30N 63°40' E 009°02'0 0.0
2018-Jun-14 02:00N 63°40' E 009°02'0 0.0
2018-Jun-14 01:30N 63°40' E 009°02'0 0.0
2018-Jun-14 01:00N 63°40' E 009°02'0 0.0
2018-Jun-14 00:30N 63°40' E 009°02'1 2.0
2018-Jun-14 00:00N 63°40' E 008°60'510.3
2018-Jun-13 23:29N 63°46' E 008°60'510.2
2018-Jun-13 23:00N 63°51' E 008°57'510.1
2018-Jun-13 22:30N 63°51' E 008°46'510.4
2018-Jun-13 21:59N 63°50' E 008°34'3 5.8
2018-Jun-13 21:29N 63°49' E 008°28'0 0.0
2018-Jun-13 21:00N 63°49' E 008°28'0 0.0
2018-Jun-13 20:30N 63°49' E 008°28'0 0.0
2018-Jun-13 20:00N 63°49' E 008°28'0 0.0
2018-Jun-13 19:30N 63°49' E 008°28'0 0.0
2018-Jun-13 19:00N 63°49' E 008°28'0 0.2
2018-Jun-13 18:30N 63°49' E 008°28'0 0.5
2018-Jun-13 18:00N 63°49' E 008°28'0 0.4
2018-Jun-13 17:29N 63°48' E 008°28'2 4.6
2018-Jun-13 17:00N 63°47' E 008°25'5 9.6
2018-Jun-13 16:30N 63°44' E 008°17'510.2
2018-Jun-13 16:00N 63°39' E 008°13'611.7
2018-Jun-13 15:30N 63°33' E 008°13'612.2
2018-Jun-13 15:00N 63°27' E 008°14'612.1
2018-Jun-13 14:30N 63°21' E 008°18'611.2
2018-Jun-13 14:00N 63°17' E 008°11'611.6
2018-Jun-13 13:30N 63°14' E 007°59'611.8
2018-Jun-13 13:00N 63°11' E 007°48'3 6.6
2018-Jun-13 12:29N 63°07' E 007°46'0 0.0
2018-Jun-13 11:59N 63°07' E 007°46'0 0.0
2018-Jun-13 11:29N 63°07' E 007°46'0 0.0
2018-Jun-13 10:59N 63°07' E 007°46'0 0.0
2018-Jun-13 10:29N 63°07' E 007°46'0 0.0
2018-Jun-13 10:00N 63°07' E 007°46'0 0.0
2018-Jun-13 09:30N 63°07' E 007°46'0 0.0
2018-Jun-13 09:00N 63°07' E 007°46'0 0.0
2018-Jun-13 08:30N 63°07' E 007°46'0 0.0
2018-Jun-13 08:00N 63°07' E 007°46'0 0.0
2018-Jun-13 07:30N 63°07' E 007°46'0 0.0
2018-Jun-13 07:00N 63°07' E 007°46'0 0.0
2018-Jun-13 06:30N 63°07' E 007°46'0 0.0
2018-Jun-13 06:00N 63°07' E 007°46'0 0.0
2018-Jun-13 05:30N 63°07' E 007°46'0 0.0
2018-Jun-13 05:00N 63°07' E 007°46'0 0.0
2018-Jun-13 04:30N 63°07' E 007°46'0 0.0
2018-Jun-13 04:00N 63°07' E 007°46'0 0.0
2018-Jun-13 03:30N 63°07' E 007°46'0 0.0
2018-Jun-13 03:00N 63°07' E 007°46'0 0.0
2018-Jun-13 02:30N 63°07' E 007°46'0 0.0
2018-Jun-13 02:00N 63°07' E 007°46'0 0.0
2018-Jun-13 01:30N 63°07' E 007°46'0 0.0
2018-Jun-13 01:00N 63°07' E 007°46'0 0.0
2018-Jun-13 00:30N 63°07' E 007°46'0 0.0
2018-Jun-13 00:00N 63°07' E 007°46'0 0.0
2018-Jun-12 23:30N 63°07' E 007°46'0 0.0
2018-Jun-12 23:00N 63°07' E 007°46'0 0.0
2018-Jun-12 22:30N 63°07' E 007°46'0 0.0
2018-Jun-12 22:00N 63°07' E 007°46'0 0.0
2018-Jun-12 21:30N 63°07' E 007°46'0 0.0
2018-Jun-12 21:00N 63°07' E 007°46'0 0.0
2018-Jun-12 20:30N 63°07' E 007°46'0 0.0
2018-Jun-12 20:00N 63°07' E 007°46'0 0.0
2018-Jun-12 19:30N 63°07' E 007°46'0 0.0
2018-Jun-12 19:00N 63°07' E 007°46'0 0.0
2018-Jun-12 18:30N 63°07' E 007°46'0 0.0
2018-Jun-12 18:00N 63°07' E 007°46'0 0.0
2018-Jun-12 17:30N 63°07' E 007°46'0 0.0
2018-Jun-12 17:00N 63°07' E 007°46'0 0.0
2018-Jun-12 16:30N 63°07' E 007°46'0 0.0
2018-Jun-12 16:00N 63°07' E 007°46'0 0.0
2018-Jun-12 15:30N 63°07' E 007°46'1 2.8
2018-Jun-12 15:01N 63°09' E 007°47'1 1.2
2018-Jun-12 14:30N 63°09' E 007°46'0 0.1
2018-Jun-12 14:00N 63°09' E 007°46'1 1.7
2018-Jun-12 13:31N 63°10' E 007°46'0 0.5
2018-Jun-12 13:00N 63°10' E 007°47'1 1.8
2018-Jun-12 12:31N 63°09' E 007°47'0 0.6
2018-Jun-12 12:00N 63°09' E 007°48'2 3.0
2018-Jun-12 11:30N 63°07' E 007°46'0 0.0
2018-Jun-12 10:58N 63°07' E 007°46'0 0.0
2018-Jun-12 10:28N 63°07' E 007°46'0 0.0
2018-Jun-12 09:58N 63°07' E 007°46'0 0.0
2018-Jun-12 09:28N 63°07' E 007°46'0 0.0
2018-Jun-12 08:58N 63°07' E 007°46'0 0.0
2018-Jun-12 08:28N 63°07' E 007°46'0 0.0
2018-Jun-12 08:01N 63°07' E 007°46'0 0.0
2018-Jun-12 07:30N 63°07' E 007°46'1 1.9
2018-Jun-12 07:01N 63°08' E 007°48'2 3.6
2018-Jun-12 06:30N 63°08' E 007°44'1 2.9
2018-Jun-12 06:01N 63°08' E 007°41'0 0.4
2018-Jun-12 05:30N 63°08' E 007°41'1 2.1
2018-Jun-12 05:00N 63°08' E 007°39'1 1.5
2018-Jun-12 04:30N 63°08' E 007°37'0 0.6
2018-Jun-12 04:01N 63°08' E 007°38'2 4.3
2018-Jun-12 03:30N 63°07' E 007°33'5 9.7
2018-Jun-12 03:00N 63°04' E 007°24'510.3
2018-Jun-12 02:30N 63°02' E 007°14'510.2
2018-Jun-12 02:01N 63°00' E 007°03'510.0
2018-Jun-12 01:30N 62°58' E 006°53'5 9.9
2018-Jun-12 01:00N 62°54' E 006°46'510.3
2018-Jun-12 00:29N 62°50' E 006°40'510.7
2018-Jun-12 00:00N 62°46' E 006°34'510.8
2018-Jun-11 23:30N 62°41' E 006°27'510.1
2018-Jun-11 22:59N 62°37' E 006°20'5 9.9
2018-Jun-11 22:31N 62°34' E 006°12'510.3
2018-Jun-11 22:01N 62°29' E 006°08'2 4.1
2018-Jun-11 21:30N 62°27' E 006°10'1 1.9
2018-Jun-11 21:00N 62°28' E 006°08'0 0.0
2018-Jun-11 20:30N 62°28' E 006°08'0 0.0
2018-Jun-11 20:00N 62°28' E 006°08'0 0.0
2018-Jun-11 19:30N 62°28' E 006°08'0 0.0
2018-Jun-11 19:00N 62°28' E 006°08'0 0.0
2018-Jun-11 18:30N 62°28' E 006°08'1 2.7
2018-Jun-11 18:00N 62°28' E 006°11'3 5.9
2018-Jun-11 17:30N 62°27' E 006°17'0 0.0
2018-Jun-11 17:00N 62°27' E 006°17'0 0.0
2018-Jun-11 16:30N 62°27' E 006°17'0 0.0
2018-Jun-11 16:00N 62°27' E 006°17'0 0.0
2018-Jun-11 15:30N 62°27' E 006°17'0 0.0
2018-Jun-11 15:00N 62°27' E 006°17'0 0.0
2018-Jun-11 14:30N 62°27' E 006°17'0 0.0
2018-Jun-11 14:00N 62°27' E 006°17'0 0.0
2018-Jun-11 13:30N 62°27' E 006°17'0 0.0
2018-Jun-11 13:00N 62°27' E 006°17'0 0.0
2018-Jun-11 12:30N 62°27' E 006°17'0 0.0
2018-Jun-11 12:00N 62°27' E 006°17'0 0.0
2018-Jun-11 11:30N 62°27' E 006°17'0 0.0
2018-Jun-11 11:00N 62°27' E 006°17'0 0.0
2018-Jun-11 10:30N 62°27' E 006°17'0 0.0
2018-Jun-11 10:00N 62°27' E 006°17'0 0.0
2018-Jun-11 09:30N 62°27' E 006°17'0 0.0
2018-Jun-11 09:00N 62°27' E 006°17'0 0.0
2018-Jun-11 08:30N 62°27' E 006°17'0 0.0
2018-Jun-11 08:00N 62°27' E 006°17'0 0.0
2018-Jun-11 07:30N 62°27' E 006°17'0 0.0
2018-Jun-11 07:00N 62°27' E 006°17'0 0.0
2018-Jun-11 06:30N 62°27' E 006°17'0 0.0
2018-Jun-11 06:00N 62°27' E 006°17'0 0.0
2018-Jun-11 05:30N 62°27' E 006°17'0 0.0
2018-Jun-11 05:00N 62°27' E 006°17'0 0.0
2018-Jun-11 04:30N 62°27' E 006°17'0 0.0
2018-Jun-11 04:00N 62°27' E 006°17'0 0.0
2018-Jun-11 03:30N 62°27' E 006°17'0 0.0
2018-Jun-11 03:00N 62°27' E 006°17'0 0.0
2018-Jun-11 02:30N 62°27' E 006°17'0 0.0
2018-Jun-11 02:00N 62°27' E 006°17'0 0.0
2018-Jun-11 01:30N 62°27' E 006°17'0 0.0
2018-Jun-11 00:57N 62°27' E 006°17'0 0.0
2018-Jun-11 00:30N 62°27' E 006°17'0 0.0
2018-Jun-10 23:57N 62°27' E 006°17'0 0.0
2018-Jun-10 23:30N 62°27' E 006°17'0 0.0
2018-Jun-10 23:00N 62°27' E 006°17'0 0.0
2018-Jun-10 22:30N 62°27' E 006°17'0 0.0
2018-Jun-10 22:00N 62°27' E 006°17'0 0.0
2018-Jun-10 21:30N 62°27' E 006°17'0 0.0
2018-Jun-10 21:00N 62°27' E 006°17'0 0.0
2018-Jun-10 20:30N 62°27' E 006°17'0 0.0
2018-Jun-10 20:00N 62°27' E 006°17'0 0.0
2018-Jun-10 19:30N 62°27' E 006°17'0 0.0
2018-Jun-10 19:00N 62°27' E 006°17'0 0.0
2018-Jun-10 18:30N 62°27' E 006°17'0 0.0
2018-Jun-10 18:00N 62°27' E 006°17'0 0.0
2018-Jun-10 17:30N 62°27' E 006°17'0 0.0
2018-Jun-10 17:00N 62°27' E 006°17'0 0.0
2018-Jun-10 16:30N 62°27' E 006°17'0 0.0
2018-Jun-10 16:00N 62°27' E 006°17'0 0.0
2018-Jun-10 15:30N 62°27' E 006°17'0 0.0
2018-Jun-10 14:57N 62°27' E 006°17'0 0.0
2018-Jun-10 14:00N 62°27' E 006°17'0 0.0
2018-Jun-10 13:30N 62°27' E 006°17'0 0.0
2018-Jun-10 13:00N 62°27' E 006°17'0 0.0
2018-Jun-10 12:30N 62°27' E 006°17'0 0.0
2018-Jun-10 12:00N 62°27' E 006°17'0 0.0
2018-Jun-10 11:30N 62°27' E 006°17'0 0.0
2018-Jun-10 11:00N 62°27' E 006°17'0 0.0
2018-Jun-10 10:30N 62°27' E 006°17'0 0.0
2018-Jun-10 10:00N 62°27' E 006°17'0 0.0
2018-Jun-10 09:30N 62°27' E 006°17'0 0.0
2018-Jun-10 08:57N 62°27' E 006°17'0 0.0
2018-Jun-10 08:30N 62°27' E 006°17'0 0.0
2018-Jun-10 08:00N 62°27' E 006°17'0 0.0
2018-Jun-10 07:30N 62°27' E 006°17'0 0.0
2018-Jun-10 07:00N 62°27' E 006°17'0 0.0
2018-Jun-10 06:30N 62°27' E 006°17'0 0.0
2018-Jun-10 06:00N 62°27' E 006°17'0 0.0
2018-Jun-10 05:30N 62°27' E 006°17'0 0.0
2018-Jun-10 05:00N 62°27' E 006°17'0 0.0
2018-Jun-10 04:30N 62°27' E 006°17'0 0.0
2018-Jun-10 04:00N 62°27' E 006°17'0 0.0
2018-Jun-10 03:30N 62°27' E 006°17'0 0.0
2018-Jun-10 03:00N 62°27' E 006°17'0 0.0
2018-Jun-10 02:30N 62°27' E 006°17'0 0.0
2018-Jun-10 02:00N 62°27' E 006°17'0 0.0
2018-Jun-10 01:30N 62°27' E 006°17'0 0.0
2018-Jun-10 01:00N 62°27' E 006°17'0 0.0
2018-Jun-10 00:30N 62°27' E 006°17'0 0.0
2018-Jun-09 23:57N 62°27' E 006°17'0 0.0
2018-Jun-09 23:30N 62°27' E 006°17'0 0.0
2018-Jun-09 23:00N 62°27' E 006°17'0 0.0
2018-Jun-09 22:30N 62°27' E 006°17'0 0.0
2018-Jun-09 22:00N 62°27' E 006°17'0 0.0
2018-Jun-09 21:30N 62°27' E 006°17'0 0.0
2018-Jun-09 21:00N 62°27' E 006°17'0 0.0
2018-Jun-09 20:30N 62°27' E 006°17'0 0.0
2018-Jun-09 20:00N 62°27' E 006°17'0 0.0
2018-Jun-09 19:30N 62°27' E 006°17'0 0.0
2018-Jun-09 19:00N 62°27' E 006°17'0 0.0
2018-Jun-09 18:30N 62°27' E 006°17'0 0.0
2018-Jun-09 18:00N 62°27' E 006°17'0 0.0
2018-Jun-09 17:30N 62°27' E 006°17'0 0.0
2018-Jun-09 17:00N 62°27' E 006°17'0 0.0
2018-Jun-09 16:30N 62°27' E 006°17'0 0.0
2018-Jun-09 16:00N 62°27' E 006°17'0 0.0
2018-Jun-09 15:00N 62°27' E 006°17'0 0.0
2018-Jun-09 14:30N 62°27' E 006°17'0 0.0
2018-Jun-09 14:00N 62°27' E 006°17'0 0.0
2018-Jun-09 13:30N 62°27' E 006°17'0 0.0
2018-Jun-09 13:00N 62°27' E 006°17'0 0.0
2018-Jun-09 12:30N 62°27' E 006°17'0 0.0
2018-Jun-09 12:00N 62°27' E 006°17'0 0.0
2018-Jun-09 11:30N 62°27' E 006°17'0 0.0
2018-Jun-09 11:00N 62°27' E 006°17'0 0.0
2018-Jun-09 10:30N 62°27' E 006°17'0 0.0
2018-Jun-09 10:00N 62°27' E 006°17'0 0.0
2018-Jun-09 09:30N 62°27' E 006°17'0 0.0
2018-Jun-09 09:00N 62°27' E 006°17'0 0.0
2018-Jun-09 08:30N 62°27' E 006°17'0 0.0
2018-Jun-09 08:00N 62°27' E 006°17'0 0.0
2018-Jun-09 07:30N 62°27' E 006°17'0 0.0
2018-Jun-09 07:00N 62°27' E 006°17'0 0.0
2018-Jun-09 06:30N 62°27' E 006°17'0 0.0
2018-Jun-09 06:00N 62°27' E 006°17'0 0.0
2018-Jun-09 05:30N 62°27' E 006°17'0 0.0
2018-Jun-09 05:00N 62°27' E 006°17'0 0.0
2018-Jun-09 04:30N 62°27' E 006°17'0 0.0
2018-Jun-09 04:00N 62°27' E 006°17'0 0.0
2018-Jun-09 03:30N 62°27' E 006°17'0 0.0
2018-Jun-09 03:00N 62°27' E 006°17'0 0.0
2018-Jun-09 02:30N 62°27' E 006°17'0 0.0
2018-Jun-09 02:00N 62°27' E 006°17'0 0.0
2018-Jun-09 01:30N 62°27' E 006°17'0 0.0
2018-Jun-09 01:00N 62°27' E 006°17'0 0.0
2018-Jun-09 00:30N 62°27' E 006°17'0 0.0
2018-Jun-09 00:00N 62°27' E 006°17'0 0.0
2018-Jun-08 23:30N 62°27' E 006°17'0 0.0
2018-Jun-08 23:00N 62°27' E 006°17'0 0.0
2018-Jun-08 22:30N 62°27' E 006°17'0 0.0
2018-Jun-08 22:00N 62°27' E 006°17'0 0.0
2018-Jun-08 21:30N 62°27' E 006°17'0 0.0
2018-Jun-08 20:54N 62°27' E 006°17'0 0.0
2018-Jun-08 20:30N 62°27' E 006°17'0 0.0
2018-Jun-08 20:00N 62°27' E 006°17'0 0.0
2018-Jun-08 19:27N 62°27' E 006°17'0 0.0
2018-Jun-08 19:00N 62°27' E 006°17'0 0.0
2018-Jun-08 18:30N 62°27' E 006°17'0 0.0
2018-Jun-08 18:00N 62°27' E 006°17'0 0.0
2018-Jun-08 17:30N 62°27' E 006°17'0 0.0
2018-Jun-08 17:00N 62°27' E 006°17'0 0.0
2018-Jun-08 16:30N 62°27' E 006°17'0 0.0
2018-Jun-08 16:00N 62°27' E 006°17'  

Dump ship's entire track history